Time;durP1;ratioP1;P1;durP2;ratioP2;P2;SDS_P1;SDS_P2;PMS_P1;PMS_P2;Temp;Humidity;BMP_temperature;BMP_pressure;BME280_temperature;BME280_humidity;BME280_pressure;Samples;Min_cycle;Max_cycle;Signal;HPM_P1;HPM_P2
2023/04/06 00:01:34;;;;;;;11.17;9.63;;;2.60;99.90;;;;;;4992473;28;20179;-68
2023/04/06 00:04:00;;;;;;;10.20;9.20;;;2.60;99.90;;;;;;5013585;28;20645;-69
2023/04/06 00:06:26;;;;;;;14.80;9.40;;;2.50;99.90;;;;;;4999919;28;20465;-69
2023/04/06 00:08:52;;;;;;;10.90;9.50;;;2.60;99.90;;;;;;4985959;28;20180;-68
2023/04/06 00:11:17;;;;;;;16.00;9.77;;;2.60;99.90;;;;;;4991656;28;20525;-69
2023/04/06 00:13:43;;;;;;;11.47;8.73;;;2.60;99.90;;;;;;4989802;28;20262;-68
2023/04/06 00:16:08;;;;;;;9.77;8.77;;;2.70;99.90;;;;;;4992030;28;20585;-68
2023/04/06 00:18:34;;;;;;;12.77;10.60;;;2.70;99.90;;;;;;4989252;28;20764;-69
2023/04/06 00:20:59;;;;;;;12.13;9.57;;;2.80;99.90;;;;;;5004941;28;20176;-69
2023/04/06 00:23:25;;;;;;;11.77;9.60;;;2.80;99.90;;;;;;5003082;28;20259;-68
2023/04/06 00:25:50;;;;;;;11.43;9.50;;;2.80;99.90;;;;;;4994533;28;20207;-68
2023/04/06 00:28:16;;;;;;;10.47;9.43;;;2.80;99.90;;;;;;5000397;28;20182;-68
2023/04/06 00:30:41;;;;;;;13.30;9.83;;;2.80;99.90;;;;;;4996847;28;20175;-68
2023/04/06 00:33:07;;;;;;;10.77;9.10;;;2.70;99.90;;;;;;4995005;28;20171;-68
2023/04/06 00:35:32;;;;;;;11.77;9.40;;;2.70;99.90;;;;;;4998691;28;20204;-69
2023/04/06 00:37:58;;;;;;;13.23;9.33;;;2.70;99.90;;;;;;4992544;28;20184;-68
2023/04/06 00:40:24;;;;;;;12.90;9.73;;;2.60;99.90;;;;;;5003702;28;20226;-69
2023/04/06 00:42:50;;;;;;;11.50;10.40;;;2.60;99.90;;;;;;4996144;28;20187;-69
2023/04/06 00:45:15;;;;;;;10.70;9.60;;;2.50;99.90;;;;;;4990830;28;20268;-68
2023/04/06 00:47:41;;;;;;;11.37;9.13;;;2.40;99.90;;;;;;5000243;28;20513;-68
2023/04/06 00:50:07;;;;;;;13.13;11.73;;;2.40;99.90;;;;;;4992313;28;20241;-68
2023/04/06 00:52:34;;;;;;;12.47;10.80;;;2.30;99.90;;;;;;5000384;28;20289;-68
2023/04/06 00:54:59;;;;;;;10.40;9.33;;;2.30;99.90;;;;;;4999993;28;20482;-68
2023/04/06 00:57:25;;;;;;;11.13;10.00;;;2.30;99.90;;;;;;4992429;28;21002;-68
2023/04/06 00:59:52;;;;;;;13.27;10.57;;;2.30;99.90;;;;;;4994391;28;20191;-68
2023/04/06 01:02:18;;;;;;;9.53;8.63;;;2.30;99.90;;;;;;4999955;28;20186;-68
2023/04/06 01:04:43;;;;;;;12.07;10.63;;;2.30;99.90;;;;;;5004149;28;20462;-68
2023/04/06 01:07:09;;;;;;;11.80;9.43;;;2.20;99.90;;;;;;5001490;28;20310;-68
2023/04/06 01:09:35;;;;;;;12.97;8.80;;;2.10;99.90;;;;;;4998080;28;20171;-69
2023/04/06 01:12:00;;;;;;;11.40;9.87;;;2.10;99.90;;;;;;5003149;28;20438;-67
2023/04/06 01:14:26;;;;;;;10.23;9.23;;;2.10;99.90;;;;;;4998920;28;20210;-69
2023/04/06 01:16:52;;;;;;;12.80;9.47;;;2.10;99.90;;;;;;5017180;28;20292;-68
2023/04/06 01:19:17;;;;;;;12.70;10.60;;;2.10;99.90;;;;;;4991619;28;20230;-68
2023/04/06 01:21:43;;;;;;;10.87;9.77;;;2.10;99.90;;;;;;4995327;28;20230;-68
2023/04/06 01:24:09;;;;;;;13.70;9.20;;;2.10;99.90;;;;;;4995403;28;20214;-68
2023/04/06 01:26:36;;;;;;;10.20;9.17;;;2.00;99.90;;;;;;4995190;28;20692;-68
2023/04/06 01:29:02;;;;;;;11.17;9.43;;;2.00;99.90;;;;;;4995435;28;20434;-68
2023/04/06 01:31:29;;;;;;;10.50;9.40;;;2.00;99.90;;;;;;5009334;28;20439;-68
2023/04/06 01:33:54;;;;;;;11.93;9.80;;;2.00;99.90;;;;;;4994909;28;20435;-67
2023/04/06 01:36:20;;;;;;;13.43;11.30;;;1.90;99.90;;;;;;4993984;28;20470;-68
2023/04/06 01:38:46;;;;;;;13.80;10.10;;;1.90;99.90;;;;;;4993423;28;20183;-68
2023/04/06 01:41:12;;;;;;;12.20;10.70;;;1.90;99.90;;;;;;4994515;28;20259;-68
2023/04/06 01:43:38;;;;;;;12.30;9.47;;;1.90;99.90;;;;;;4994938;28;20180;-68
2023/04/06 01:46:03;;;;;;;11.73;10.43;;;1.90;99.90;;;;;;4987600;28;20247;-68
2023/04/06 01:48:29;;;;;;;10.60;8.83;;;1.90;99.90;;;;;;4994463;28;20191;-68
2023/04/06 01:50:55;;;;;;;10.73;8.53;;;2.00;99.90;;;;;;4994933;28;20171;-68
2023/04/06 01:53:21;;;;;;;11.97;9.50;;;2.00;99.90;;;;;;4994132;28;20943;-68
2023/04/06 01:55:46;;;;;;;11.20;9.60;;;2.00;99.90;;;;;;4993743;28;20233;-68
2023/04/06 01:58:13;;;;;;;13.50;10.30;;;2.00;99.90;;;;;;4993133;28;20195;-68
2023/04/06 02:00:39;;;;;;;11.50;10.30;;;2.00;99.90;;;;;;4994343;28;20188;-68
2023/04/06 02:03:05;;;;;;;12.40;9.03;;;2.00;99.90;;;;;;4998904;28;20495;-68
2023/04/06 02:05:33;;;;;;;14.10;9.70;;;1.90;99.90;;;;;;4994080;28;20226;-68
2023/04/06 02:07:58;;;;;;;11.67;9.90;;;1.90;99.90;;;;;;4993413;28;20443;-68
2023/04/06 02:10:24;;;;;;;13.53;10.47;;;1.80;99.90;;;;;;4999032;28;21379;-68
2023/04/06 02:12:50;;;;;;;10.90;9.70;;;1.70;99.90;;;;;;5001448;28;20231;-68
2023/04/06 02:15:16;;;;;;;11.00;9.60;;;1.70;99.90;;;;;;4991394;28;20207;-68
2023/04/06 02:17:42;;;;;;;11.13;9.37;;;1.60;99.90;;;;;;4988249;28;20215;-68
2023/04/06 02:20:08;;;;;;;13.70;10.17;;;1.60;99.90;;;;;;4984782;28;20439;-68
2023/04/06 02:22:35;;;;;;;14.23;10.40;;;1.60;99.90;;;;;;4989907;28;20439;-68
2023/04/06 02:25:01;;;;;;;13.67;10.80;;;1.50;99.90;;;;;;4996786;28;20461;-68
2023/04/06 02:27:26;;;;;;;14.37;10.00;;;1.60;99.90;;;;;;5014481;28;20457;-68
2023/04/06 02:29:52;;;;;;;11.70;10.20;;;1.60;99.90;;;;;;5013963;28;20633;-68
2023/04/06 02:32:17;;;;;;;11.73;10.53;;;1.60;99.90;;;;;;5014506;28;20167;-68
2023/04/06 02:34:43;;;;;;;10.80;9.40;;;1.60;99.90;;;;;;5007666;28;20183;-68
2023/04/06 02:37:08;;;;;;;11.40;8.97;;;1.60;99.90;;;;;;5002766;28;20204;-68
2023/04/06 02:39:34;;;;;;;11.17;10.07;;;1.70;99.90;;;;;;5013726;28;20245;-68
2023/04/06 02:41:59;;;;;;;13.10;11.23;;;1.70;99.90;;;;;;5014317;28;20194;-68
2023/04/06 02:44:25;;;;;;;11.60;10.20;;;1.60;99.90;;;;;;5014290;28;20675;-69
2023/04/06 02:46:50;;;;;;;12.13;10.83;;;1.60;99.90;;;;;;5008273;28;20195;-68
2023/04/06 02:49:16;;;;;;;13.33;9.23;;;1.50;99.90;;;;;;5005215;28;20590;-68
2023/04/06 02:51:42;;;;;;;11.30;10.10;;;1.50;99.90;;;;;;5014268;28;20163;-69
2023/04/06 02:54:07;;;;;;;17.40;13.37;;;1.50;99.90;;;;;;5014177;28;20202;-68
2023/04/06 02:56:33;;;;;;;16.60;12.83;;;1.50;99.90;;;;;;5014035;28;20191;-68
2023/04/06 02:58:58;;;;;;;12.90;10.83;;;1.50;99.90;;;;;;5013363;28;20220;-68
2023/04/06 03:01:24;;;;;;;10.70;9.60;;;1.40;99.90;;;;;;5006879;28;20179;-68
2023/04/06 03:03:49;;;;;;;10.43;9.27;;;1.50;99.90;;;;;;5007793;28;20517;-68
2023/04/06 03:06:15;;;;;;;15.03;10.93;;;1.40;99.90;;;;;;5013763;28;20210;-68
2023/04/06 03:08:40;;;;;;;12.40;8.97;;;1.40;99.90;;;;;;4993784;28;20175;-67
2023/04/06 03:11:06;;;;;;;14.90;10.10;;;1.40;99.90;;;;;;5009166;28;20176;-67
2023/04/06 03:13:31;;;;;;;14.83;10.23;;;1.40;99.90;;;;;;4994165;28;20172;-68
2023/04/06 03:15:57;;;;;;;13.23;9.53;;;1.40;99.90;;;;;;4994155;28;20774;-68
2023/04/06 03:18:24;;;;;;;13.27;9.50;;;1.40;99.90;;;;;;5000390;28;20306;-68
2023/04/06 03:20:50;;;;;;;12.10;10.47;;;1.30;99.90;;;;;;5008944;28;20206;-67
2023/04/06 03:23:16;;;;;;;13.00;10.37;;;1.30;99.90;;;;;;5012352;28;20422;-67
2023/04/06 03:25:41;;;;;;;14.60;10.17;;;1.30;99.90;;;;;;5013381;28;20956;-67
2023/04/06 03:28:07;;;;;;;14.13;10.00;;;1.30;99.90;;;;;;5013283;28;20550;-67
2023/04/06 03:30:33;;;;;;;15.33;10.10;;;1.30;99.90;;;;;;5012919;28;20171;-67
2023/04/06 03:32:59;;;;;;;18.47;10.60;;;1.30;99.90;;;;;;5010955;28;20179;-67
2023/04/06 03:35:24;;;;;;;13.67;11.00;;;1.30;99.90;;;;;;5007334;28;20434;-67
2023/04/06 03:37:50;;;;;;;15.40;10.67;;;1.30;99.90;;;;;;5016582;23;20223;-74
2023/04/06 03:40:15;;;;;;;14.93;10.40;;;1.30;99.90;;;;;;4993063;28;20176;-74
2023/04/06 03:42:41;;;;;;;13.47;10.60;;;1.30;99.90;;;;;;4993636;28;20176;-73
2023/04/06 03:45:07;;;;;;;14.10;10.97;;;1.30;99.90;;;;;;4993633;28;20568;-73
2023/04/06 03:47:33;;;;;;;13.80;10.20;;;1.30;99.90;;;;;;4993496;28;20195;-73
2023/04/06 03:49:58;;;;;;;15.53;12.30;;;1.40;99.90;;;;;;4992311;28;20449;-73
2023/04/06 03:52:24;;;;;;;14.27;9.80;;;1.40;99.90;;;;;;4993384;28;20240;-74
2023/04/06 03:54:49;;;;;;;13.43;10.37;;;1.40;99.90;;;;;;4993446;28;20178;-73
2023/04/06 03:57:15;;;;;;;14.33;10.40;;;1.30;99.90;;;;;;4993367;28;20271;-73
2023/04/06 03:59:40;;;;;;;15.97;10.80;;;1.20;99.90;;;;;;4992733;28;20653;-73
2023/04/06 04:02:06;;;;;;;11.93;9.93;;;1.10;99.90;;;;;;4993353;28;20171;-74
2023/04/06 04:04:31;;;;;;;15.83;12.10;;;1.10;99.90;;;;;;4993338;28;20282;-74
2023/04/06 04:06:57;;;;;;;14.63;12.90;;;1.10;99.90;;;;;;4992563;28;20191;-74
2023/04/06 04:09:22;;;;;;;12.90;10.90;;;1.10;99.90;;;;;;4992060;28;20302;-73
2023/04/06 04:11:48;;;;;;;14.10;9.80;;;1.10;99.90;;;;;;4993190;28;20163;-73
2023/04/06 04:14:14;;;;;;;19.73;11.83;;;1.10;99.90;;;;;;4993249;28;20246;-75
2023/04/06 04:16:41;;;;;;;14.90;11.00;;;1.10;99.90;;;;;;4993088;28;20187;-74
2023/04/06 04:19:06;;;;;;;15.93;10.20;;;1.10;99.90;;;;;;4992414;28;20160;-73
2023/04/06 04:21:32;;;;;;;10.77;9.07;;;1.10;99.90;;;;;;4993116;28;20430;-73
2023/04/06 04:23:57;;;;;;;15.53;10.73;;;1.10;99.90;;;;;;4992579;28;20175;-74
2023/04/06 04:26:23;;;;;;;19.53;10.10;;;1.00;99.90;;;;;;4992767;28;20199;-74
2023/04/06 04:28:48;;;;;;;11.33;10.07;;;1.10;99.90;;;;;;4992459;28;20171;-73
2023/04/06 04:31:14;;;;;;;12.90;10.33;;;1.10;99.90;;;;;;5007984;28;20593;-73
2023/04/06 04:33:40;;;;;;;13.80;9.50;;;1.10;99.90;;;;;;4992906;28;20675;-74
2023/04/06 04:36:05;;;;;;;14.30;10.80;;;1.10;99.90;;;;;;4992723;28;20203;-73
2023/04/06 04:38:31;;;;;;;11.50;10.27;;;1.10;99.90;;;;;;4992146;28;20637;-73
2023/04/06 04:40:56;;;;;;;13.50;10.67;;;1.10;99.90;;;;;;4991613;28;20235;-74
2023/04/06 04:43:22;;;;;;;10.93;9.83;;;1.10;99.90;;;;;;4992849;28;20187;-74
2023/04/06 04:45:47;;;;;;;17.30;11.47;;;1.10;99.90;;;;;;4992646;28;20202;-74
2023/04/06 04:48:13;;;;;;;11.70;10.50;;;1.10;99.90;;;;;;4992246;28;20230;-73
2023/04/06 04:50:38;;;;;;;11.23;10.13;;;1.10;99.90;;;;;;4992961;28;20175;-73
2023/04/06 04:53:07;;;;;;;19.40;13.70;;;1.00;99.90;;;;;;4992689;28;20546;-74
2023/04/06 04:55:32;;;;;;;16.10;12.17;;;1.00;99.90;;;;;;4992649;28;20278;-73
2023/04/06 04:57:58;;;;;;;16.87;12.20;;;1.00;99.90;;;;;;4991495;28;20458;-73
2023/04/06 05:00:24;;;;;;;14.90;11.73;;;1.00;99.90;;;;;;4991848;28;20266;-73
2023/04/06 05:02:49;;;;;;;16.20;11.70;;;1.00;99.90;;;;;;4991943;28;20641;-74
2023/04/06 05:05:15;;;;;;;16.77;13.50;;;1.10;99.90;;;;;;4992385;28;20548;-74
2023/04/06 05:07:41;;;;;;;11.33;9.97;;;1.10;99.90;;;;;;4992378;28;20253;-74
2023/04/06 05:10:07;;;;;;;11.90;9.70;;;1.10;99.90;;;;;;4991717;28;20218;-74
2023/04/06 05:12:32;;;;;;;12.10;10.90;;;1.20;99.90;;;;;;4992580;28;20172;-74
2023/04/06 05:14:58;;;;;;;15.33;10.33;;;1.30;99.90;;;;;;4992488;28;20443;-74
2023/04/06 05:17:23;;;;;;;15.43;11.27;;;1.30;99.90;;;;;;4990967;28;20251;-74
2023/04/06 05:19:49;;;;;;;13.43;11.00;;;1.40;99.90;;;;;;4991528;28;20186;-74
2023/04/06 05:22:17;;;;;;;15.07;11.07;;;1.50;99.90;;;;;;4992715;28;20176;-74
2023/04/06 05:24:43;;;;;;;14.67;10.30;;;1.70;99.90;;;;;;4992627;28;20737;-74
2023/04/06 05:27:08;;;;;;;13.87;11.93;;;1.80;99.90;;;;;;4992436;28;20466;-74
2023/04/06 05:29:34;;;;;;;13.23;11.77;;;2.00;99.90;;;;;;4991730;28;20575;-74
2023/04/06 05:31:59;;;;;;;16.03;10.67;;;2.10;99.90;;;;;;4992111;28;20172;-74
2023/04/06 05:34:25;;;;;;;13.67;12.27;;;2.30;99.90;;;;;;4989842;28;20184;-74
2023/04/06 05:36:50;;;;;;;12.60;10.43;;;2.50;99.90;;;;;;4991474;28;20576;-74
2023/04/06 05:39:16;;;;;;;12.03;10.73;;;2.70;99.90;;;;;;4991574;28;20175;-73
2023/04/06 05:41:41;;;;;;;16.00;10.67;;;2.90;99.90;;;;;;4992257;28;20780;-73
2023/04/06 05:44:07;;;;;;;14.63;12.50;;;3.00;99.90;;;;;;4993689;28;20169;-74
2023/04/06 05:46:33;;;;;;;17.03;12.27;;;3.10;99.90;;;;;;4994641;28;20691;-74
2023/04/06 05:48:58;;;;;;;18.53;11.77;;;3.20;99.90;;;;;;4994384;28;20199;-74
2023/04/06 05:51:24;;;;;;;15.27;12.33;;;3.40;99.90;;;;;;4995525;28;20175;-74
2023/04/06 05:53:50;;;;;;;15.67;12.43;;;3.50;99.90;;;;;;4996018;28;20294;-74
2023/04/06 05:56:16;;;;;;;15.17;12.00;;;3.60;99.90;;;;;;4995827;28;20971;-74
2023/04/06 05:58:41;;;;;;;20.57;14.10;;;3.70;99.90;;;;;;4995131;28;20239;-74
2023/04/06 06:01:08;;;;;;;14.90;11.57;;;3.80;99.90;;;;;;4995674;28;20168;-74
2023/04/06 06:03:34;;;;;;;15.20;11.23;;;3.90;99.90;;;;;;4994962;28;20257;-74
2023/04/06 06:06:03;;;;;;;18.57;11.90;;;4.00;99.90;;;;;;4995262;28;20986;-74
2023/04/06 06:08:29;;;;;;;18.47;13.50;;;4.10;99.90;;;;;;4994604;28;20186;-74
2023/04/06 06:10:55;;;;;;;17.03;12.43;;;4.10;99.90;;;;;;4995380;28;20414;-74
2023/04/06 06:13:22;;;;;;;14.57;11.80;;;4.30;99.90;;;;;;4995400;28;20429;-74
2023/04/06 06:15:48;;;;;;;16.30;11.50;;;4.50;99.90;;;;;;4995201;28;20213;-74
2023/04/06 06:18:13;;;;;;;13.87;12.37;;;4.60;99.90;;;;;;4993521;28;20471;-74
2023/04/06 06:20:39;;;;;;;13.77;11.73;;;4.60;99.90;;;;;;4995318;28;20439;-74
2023/04/06 06:23:04;;;;;;;14.13;11.80;;;4.70;99.90;;;;;;4995169;28;20186;-74
2023/04/06 06:25:33;;;;;;;15.47;11.60;;;5.00;99.90;;;;;;4995151;28;20218;-74
2023/04/06 06:27:59;;;;;;;14.77;11.57;;;5.20;99.90;;;;;;4994941;28;20199;-74
2023/04/06 06:30:24;;;;;;;15.00;11.33;;;5.40;99.90;;;;;;4994345;28;20415;-74
2023/04/06 06:32:50;;;;;;;14.83;11.30;;;5.50;99.90;;;;;;4993888;28;20195;-74
2023/04/06 06:35:16;;;;;;;14.23;12.40;;;5.60;99.90;;;;;;4995081;28;20175;-74
2023/04/06 06:37:42;;;;;;;13.50;10.73;;;5.90;99.90;;;;;;4994742;28;20520;-74
2023/04/06 06:40:10;;;;;;;12.13;10.93;;;6.10;99.90;;;;;;4994541;28;20602;-74
2023/04/06 06:42:35;;;;;;;15.97;11.23;;;6.20;99.90;;;;;;4994911;28;20450;-74
2023/04/06 06:45:01;;;;;;;12.07;10.70;;;6.40;99.90;;;;;;4994826;28;20517;-71
2023/04/06 06:47:27;;;;;;;11.43;10.37;;;6.50;99.90;;;;;;4986169;28;20195;-73
2023/04/06 06:49:52;;;;;;;13.57;10.43;;;6.60;99.90;;;;;;4988623;28;20250;-72
2023/04/06 06:52:18;;;;;;;12.37;10.70;;;6.80;99.90;;;;;;4990490;28;20171;-73
2023/04/06 06:54:44;;;;;;;13.77;11.37;;;7.00;99.90;;;;;;4992629;28;20266;-73
2023/04/06 06:57:09;;;;;;;15.13;11.10;;;7.00;99.90;;;;;;4993788;28;20899;-73
2023/04/06 06:59:35;;;;;;;11.37;9.80;;;7.00;99.90;;;;;;4994011;28;20601;-74
2023/04/06 07:02:00;;;;;;;11.60;10.23;;;7.00;99.90;;;;;;4993985;28;20190;-71
2023/04/06 07:04:26;;;;;;;14.63;11.07;;;7.30;99.90;;;;;;4993857;28;20199;-73
2023/04/06 07:06:52;;;;;;;19.73;14.30;;;7.60;99.90;;;;;;4994199;28;20207;-72
2023/04/06 07:09:18;;;;;;;14.00;12.10;;;7.90;99.90;;;;;;4993323;28;20251;-69
2023/04/06 07:11:43;;;;;;;15.53;12.60;;;8.00;99.90;;;;;;4994004;28;20518;-72
2023/04/06 07:14:09;;;;;;;12.50;11.37;;;8.20;99.40;;;;;;4994205;28;20184;-72
2023/04/06 07:16:35;;;;;;;11.33;10.23;;;8.30;98.80;;;;;;4993701;28;20637;-72
2023/04/06 07:19:00;;;;;;;11.33;10.23;;;8.40;98.30;;;;;;4991953;28;20180;-69
2023/04/06 07:21:26;;;;;;;13.53;12.13;;;8.50;98.10;;;;;;4993559;28;20233;-69
2023/04/06 07:23:51;;;;;;;13.03;10.53;;;8.30;97.70;;;;;;4993442;28;20230;-70
2023/04/06 07:26:17;;;;;;;13.97;11.10;;;8.40;97.50;;;;;;4993671;28;20846;-72
2023/04/06 07:28:43;;;;;;;12.43;11.43;;;8.40;96.60;;;;;;4992662;28;20337;-69
2023/04/06 07:31:09;;;;;;;12.37;11.27;;;8.70;96.60;;;;;;4993449;28;20637;-70
2023/04/06 07:33:34;;;;;;;12.43;11.13;;;8.90;95.70;;;;;;4993649;28;20533;-69
2023/04/06 07:36:00;;;;;;;13.93;12.53;;;9.00;95.50;;;;;;4992176;28;20211;-69
2023/04/06 07:38:25;;;;;;;14.00;10.47;;;9.40;94.70;;;;;;4992532;28;20184;-70
2023/04/06 07:40:51;;;;;;;10.50;9.53;;;9.30;93.90;;;;;;4993734;28;20533;-70
2023/04/06 07:43:16;;;;;;;11.93;10.67;;;9.50;93.90;;;;;;4993262;28;20175;-71
2023/04/06 07:45:42;;;;;;;12.23;10.97;;;9.50;92.90;;;;;;4993025;28;20306;-70
2023/04/06 07:48:07;;;;;;;14.10;10.90;;;9.60;92.10;;;;;;4993234;28;20175;-71
2023/04/06 07:50:33;;;;;;;12.00;10.80;;;9.70;91.30;;;;;;4992683;28;20602;-70
2023/04/06 07:52:59;;;;;;;13.37;10.40;;;9.90;90.70;;;;;;4991782;28;20653;-70
2023/04/06 07:55:25;;;;;;;11.57;10.47;;;10.20;90.70;;;;;;4992365;28;20258;-71
2023/04/06 07:57:50;;;;;;;12.23;11.07;;;10.30;88.70;;;;;;4991431;28;20883;-71
2023/04/06 08:00:16;;;;;;;12.33;9.87;;;10.50;87.50;;;;;;4992459;28;20171;-70
2023/04/06 08:02:42;;;;;;;11.93;10.73;;;10.40;86.40;;;;;;4993245;28;20254;-70
2023/04/06 08:05:08;;;;;;;15.80;11.87;;;10.40;85.60;;;;;;4992713;28;20561;-71
2023/04/06 08:07:33;;;;;;;11.47;10.37;;;10.70;85.80;;;;;;4991651;28;20249;-71
2023/04/06 08:09:59;;;;;;;11.17;10.17;;;10.80;84.80;;;;;;4992066;28;20437;-71
2023/04/06 08:12:25;;;;;;;12.60;11.40;;;10.90;83.30;;;;;;4992651;28;20641;-71
2023/04/06 08:14:50;;;;;;;15.33;11.53;;;11.00;84.30;;;;;;4992919;28;20179;-71
2023/04/06 08:17:16;;;;;;;13.63;11.07;;;11.10;82.20;;;;;;4992738;28;20211;-72
2023/04/06 08:19:44;;;;;;;12.23;11.03;;;11.40;81.40;;;;;;4990587;28;20225;-73
2023/04/06 08:22:11;;;;;;;13.73;11.03;;;11.70;77.70;;;;;;4992984;28;20201;-72
2023/04/06 08:24:36;;;;;;;13.20;11.90;;;11.70;77.80;;;;;;4992004;28;20467;-72
2023/04/06 08:27:02;;;;;;;13.80;12.37;;;12.10;75.80;;;;;;4992308;28;20442;-71
2023/04/06 08:29:28;;;;;;;13.70;12.30;;;12.40;74.40;;;;;;4991956;28;20191;-71
2023/04/06 08:31:53;;;;;;;12.60;11.33;;;12.60;71.40;;;;;;4992538;28;20482;-72
2023/04/06 08:34:20;;;;;;;15.00;11.97;;;12.70;70.10;;;;;;4992362;28;20769;-72
2023/04/06 08:36:46;;;;;;;11.70;10.50;;;12.80;67.90;;;;;;4992237;28;20199;-71
2023/04/06 08:39:12;;;;;;;17.97;12.50;;;12.90;66.20;;;;;;4991754;28;20414;-72
2023/04/06 08:41:37;;;;;;;13.40;11.37;;;13.00;64.80;;;;;;4990984;28;20966;-71
2023/04/06 08:44:04;;;;;;;11.83;10.57;;;13.20;62.70;;;;;;4992287;28;20179;-71
2023/04/06 08:46:30;;;;;;;13.47;10.97;;;13.60;63.20;;;;;;4992095;28;20214;-71
2023/04/06 08:49:00;;;;;;;11.60;10.40;;;13.90;59.80;;;;;;4991603;28;20501;-71
2023/04/06 08:51:26;;;;;;;13.40;12.10;;;14.30;56.90;;;;;;4992386;28;20437;-71
2023/04/06 08:53:56;;;;;;;11.73;10.53;;;14.40;55.60;;;;;;4992126;28;20856;-71
2023/04/06 08:56:23;;;;;;;19.80;13.00;;;14.20;53.60;;;;;;4992166;28;20980;-72
2023/04/06 08:58:49;;;;;;;13.03;11.77;;;14.80;54.10;;;;;;4990751;28;20971;-72
2023/04/06 09:01:20;;;;;;;13.20;11.90;;;14.70;52.90;;;;;;4989524;28;20860;-71
2023/04/06 09:03:47;;;;;;;13.73;12.33;;;14.40;52.20;;;;;;4990707;28;20435;-71
2023/04/06 09:06:13;;;;;;;11.10;10.10;;;15.10;52.70;;;;;;4991857;28;20466;-71
2023/04/06 09:08:40;;;;;;;13.00;11.50;;;15.80;50.40;;;;;;4991295;28;20860;-73
2023/04/06 09:11:06;;;;;;;12.40;11.10;;;16.10;49.50;;;;;;4992766;28;20429;-72
2023/04/06 09:13:32;;;;;;;12.77;10.70;;;16.10;48.20;;;;;;4992298;28;20431;-72
2023/04/06 09:16:02;;;;;;;12.83;11.47;;;16.20;47.70;;;;;;4991059;28;20644;-70
2023/04/06 09:18:32;;;;;;;9.37;8.57;;;16.70;47.30;;;;;;4991943;28;20207;-71
2023/04/06 09:21:02;;;;;;;12.20;11.00;;;16.90;44.30;;;;;;4994225;28;20439;-72
2023/04/06 09:23:28;;;;;;;12.67;11.53;;;16.40;44.60;;;;;;4995928;28;20430;-72
2023/04/06 09:26:06;;;;;;;10.50;9.60;;;16.30;44.90;;;;;;4995812;28;20550;-72
2023/04/06 09:28:48;;;;;;;12.13;10.10;;;16.40;44.10;;;;;;4995182;28;20398;-72
2023/04/06 09:31:24;;;;;;;12.33;11.20;;;16.70;43.70;;;;;;4995989;28;20763;-72
2023/04/06 09:33:51;;;;;;;12.20;10.93;;;16.60;42.20;;;;;;4995580;28;20425;-72
2023/04/06 09:36:17;;;;;;;12.57;11.37;;;17.70;42.20;;;;;;4995404;28;20470;-72
2023/04/06 09:38:54;;;;;;;11.57;10.57;;;18.20;41.70;;;;;;4995037;28;20423;-71
2023/04/06 09:41:34;;;;;;;14.87;13.57;;;18.90;40.00;;;;;;4995871;28;20418;-71
2023/04/06 09:44:11;;;;;;;13.23;12.10;;;19.50;38.90;;;;;;4995291;28;20816;-71
2023/04/06 09:46:46;;;;;;;12.40;11.00;;;18.70;37.80;;;;;;4995606;28;20469;-71
2023/04/06 09:49:13;;;;;;;11.87;10.70;;;18.50;38.40;;;;;;4993965;28;20458;-71
2023/04/06 09:51:48;;;;;;;12.00;10.90;;;17.90;38.70;;;;;;4994293;28;20446;-71
2023/04/06 09:54:22;;;;;;;16.10;11.67;;;17.50;38.50;;;;;;4995254;28;20469;-72
2023/04/06 09:56:55;;;;;;;10.87;9.87;;;17.50;39.30;;;;;;4995080;28;20447;-71
2023/04/06 09:59:45;;;;;;;10.60;9.77;;;18.50;38.10;;;;;;4994473;28;20463;-72
2023/04/06 10:02:24;;;;;;;10.60;9.60;;;20.10;36.60;;;;;;4988917;28;20442;-72
2023/04/06 10:04:56;;;;;;;9.77;8.97;;;20.90;34.50;;;;;;4994143;28;21127;-72
2023/04/06 10:07:22;;;;;;;9.57;8.50;;;21.50;33.80;;;;;;4995067;28;20489;-69
2023/04/06 10:09:49;;;;;;;10.00;9.20;;;21.20;33.90;;;;;;4994189;28;20455;-70
2023/04/06 10:12:15;;;;;;;10.50;9.70;;;21.80;32.40;;;;;;4994452;28;20254;-70
2023/04/06 10:14:42;;;;;;;10.03;9.10;;;20.30;31.40;;;;;;4995228;28;20414;-72
2023/04/06 10:17:08;;;;;;;11.67;10.67;;;19.00;33.10;;;;;;4994803;28;20450;-72
2023/04/06 10:19:41;;;;;;;12.60;11.33;;;18.50;34.60;;;;;;4992755;28;20442;-71
2023/04/06 10:22:10;;;;;;;10.83;9.93;;;18.10;35.00;;;;;;4994520;28;20171;-71
2023/04/06 10:24:36;;;;;;;9.80;9.00;;;18.60;34.70;;;;;;4993497;28;20458;-71
2023/04/06 10:27:03;;;;;;;10.63;9.83;;;19.00;33.60;;;;;;4994646;28;20450;-71
2023/04/06 10:29:43;;;;;;;10.13;9.37;;;19.60;33.70;;;;;;4993651;28;20175;-69
2023/04/06 10:32:08;;;;;;;11.03;10.13;;;19.50;33.30;;;;;;4992878;28;20430;-70
2023/04/06 10:34:35;;;;;;;9.73;8.93;;;19.80;33.70;;;;;;4994751;28;20431;-71
2023/04/06 10:37:12;;;;;;;10.73;9.83;;;21.80;32.60;;;;;;4993993;28;20206;-68
2023/04/06 10:39:54;;;;;;;9.23;8.43;;;22.80;30.00;;;;;;4992012;28;20795;-70
2023/04/06 10:42:24;;;;;;;10.40;9.60;;;22.90;30.10;;;;;;4994515;28;20422;-71
2023/04/06 10:44:49;;;;;;;9.80;8.90;;;24.80;29.00;;;;;;4994123;28;20500;-69
2023/04/06 10:47:19;;;;;;;10.30;9.50;;;26.10;28.20;;;;;;4992854;28;20541;-69
2023/04/06 10:49:44;;;;;;;10.67;9.87;;;25.90;26.90;;;;;;4992610;28;20184;-69
2023/04/06 10:52:11;;;;;;;11.10;10.30;;;25.70;26.70;;;;;;4994354;28;21042;-68
2023/04/06 10:54:43;;;;;;;10.40;9.70;;;24.70;27.00;;;;;;4994474;28;20580;-68
2023/04/06 10:57:09;;;;;;;11.77;10.70;;;24.90;26.90;;;;;;4994144;28;20991;-71
2023/04/06 10:59:35;;;;;;;11.33;10.30;;;24.60;27.30;;;;;;4992673;28;20466;-71
2023/04/06 11:02:00;;;;;;;9.63;8.83;;;24.80;26.90;;;;;;4994033;28;20263;-70
2023/04/06 11:04:26;;;;;;;10.53;9.73;;;25.70;27.00;;;;;;4994087;28;20247;-68
2023/04/06 11:06:51;;;;;;;11.37;10.47;;;25.00;25.40;;;;;;4993987;28;20663;-70
2023/04/06 11:09:31;;;;;;;10.93;10.07;;;24.00;26.20;;;;;;4993316;28;20649;-70
2023/04/06 11:11:57;;;;;;;11.10;10.23;;;23.90;27.30;;;;;;4993935;28;20299;-69
2023/04/06 11:14:22;;;;;;;10.77;9.87;;;25.70;26.40;;;;;;4992414;28;20538;-68
2023/04/06 11:16:49;;;;;;;11.40;10.40;;;25.40;26.40;;;;;;4993849;28;20301;-69
2023/04/06 11:19:15;;;;;;;11.10;10.20;;;23.90;26.70;;;;;;4993129;28;20173;-71
2023/04/06 11:21:48;;;;;;;10.17;9.37;;;25.00;26.50;;;;;;4993479;28;21045;-69
2023/04/06 11:24:16;;;;;;;10.53;9.73;;;25.10;25.90;;;;;;4993814;28;20494;-71
2023/04/06 11:26:50;;;;;;;11.07;10.07;;;24.60;26.40;;;;;;4993481;28;20443;-70
2023/04/06 11:29:18;;;;;;;9.97;9.07;;;25.20;25.90;;;;;;4992603;28;20436;-71
2023/04/06 11:31:57;;;;;;;10.70;9.80;;;24.80;25.90;;;;;;4993539;28;20419;-69
2023/04/06 11:34:24;;;;;;;9.53;8.73;;;25.10;25.60;;;;;;4993141;28;20431;-70
2023/04/06 11:36:56;;;;;;;9.57;8.77;;;25.30;25.30;;;;;;4993274;28;20454;-70
2023/04/06 11:39:23;;;;;;;9.87;9.07;;;25.40;25.20;;;;;;4991486;28;20434;-70
2023/04/06 11:42:09;;;;;;;9.37;8.67;;;25.80;24.90;;;;;;4991580;28;20573;-70
2023/04/06 11:44:38;;;;;;;11.13;10.23;;;26.30;24.90;;;;;;4992695;28;20542;-70
2023/04/06 11:47:06;;;;;;;10.77;9.67;;;25.90;24.30;;;;;;4992037;28;20455;-71
2023/04/06 11:49:33;;;;;;;9.90;9.03;;;26.10;24.90;;;;;;4992320;28;20423;-70
2023/04/06 11:51:59;;;;;;;10.57;9.63;;;25.60;24.60;;;;;;4991988;28;20517;-70
2023/04/06 11:54:36;;;;;;;9.90;9.10;;;24.70;24.70;;;;;;4992989;28;20908;-70
2023/04/06 11:57:02;;;;;;;10.70;9.77;;;23.40;25.30;;;;;;4992781;28;20450;-70
2023/04/06 11:59:28;;;;;;;10.57;9.40;;;23.90;26.00;;;;;;4991497;28;20806;-69
2023/04/06 12:01:54;;;;;;;9.20;8.50;;;24.30;25.40;;;;;;4992793;28;20422;-69
2023/04/06 12:04:20;;;;;;;10.27;9.37;;;25.20;25.00;;;;;;4992438;28;20172;-70
2023/04/06 12:06:46;;;;;;;9.87;9.10;;;25.20;24.90;;;;;;4992947;28;20195;-71
2023/04/06 12:09:11;;;;;;;9.87;9.07;;;25.90;24.60;;;;;;4992027;28;20504;-70
2023/04/06 12:11:37;;;;;;;9.33;8.63;;;26.10;24.60;;;;;;4992771;28;20185;-70
2023/04/06 12:14:05;;;;;;;10.83;10.03;;;27.50;23.80;;;;;;4992028;28;20654;-70
2023/04/06 12:16:31;;;;;;;9.47;8.67;;;27.60;23.20;;;;;;4992504;28;20199;-70
2023/04/06 12:18:56;;;;;;;10.53;9.20;;;27.10;23.20;;;;;;4992072;28;20518;-70
2023/04/06 12:21:22;;;;;;;9.80;9.00;;;26.00;23.70;;;;;;4993082;28;20509;-68
2023/04/06 12:23:48;;;;;;;10.13;9.27;;;27.30;23.60;;;;;;4992567;28;20171;-69
2023/04/06 12:26:13;;;;;;;10.43;9.67;;;27.10;23.10;;;;;;4992641;28;20211;-70
2023/04/06 12:28:39;;;;;;;10.50;9.10;;;27.70;23.20;;;;;;4991351;28;20187;-69
2023/04/06 12:31:04;;;;;;;11.17;10.27;;;27.90;23.10;;;;;;4992416;28;20171;-68
2023/04/06 12:33:30;;;;;;;9.33;8.63;;;26.60;23.20;;;;;;4992570;28;20230;-70
2023/04/06 12:35:56;;;;;;;9.87;9.07;;;27.00;23.40;;;;;;4992455;28;20188;-68